Bei Facebook empfehlenBei Twitter postenGoogle plusPinterest

Das Wetter im Erzgebirge am 29.08.2016

Wetter und Klima am 29.08.2016 Holzhau im Erzgebirge (630m ü.NN)
Letzte gemessene Temperatur und Uhrzeit der Messung23:45:00 Uhr11.40 °C
Temperatur (Maximum / Höchstwert) und Uhrzeit der Messung16:15:00 Uhr24.10 °C
Temperatur (Minimum / Tiefstwert) und Uhrzeit der Messung23:45:0011.40 °C
Errechneter Absolutwert der Temperaturschwankungen zwischen Tmin und Tmax des Tages12.70 K
Errechnete Tagesmitteltemperatur17.71979 °C
Gesamt - Niederschlag des Tages (in flüssiger Form)0.00 Liter / m²
Luftdruck (Maximum / Höchstwert) und Zeitpunkt der Messung23:45:00 Uhr1019.60 hPa
Luftdruck (Minimum / Tiefstwert) und Zeitpunkt der Messung01:00:00 Uhr1013.40 hPa
Errechneter Absolutwert der Luftdruckschwankungen des Tages6.20 hPa
Höchste gemessene Windgeschwindigkeit und Uhrzeit der Messung23:45:00 Uhr0.00 km/h
Errechnete Windhäufigkeit in Relation zu den Messwerten des Tages0.00000 %
Niedrigste Windkühle (Windchill) und Zeitpunkt der Messung23:45:00 Uhr11.40 °C
Taupunkt (Maximum / Höchstwert) und Uhrzeit der Messung10:45:00 Uhr16.80 °C
Taupunkt (Minimum / Tiefstwert) und Uhrzeit der Messung23:45:008.60 °C
Anzahl der automatisch eingelesenen Messwerte 96

Detaillierte Wetter- und Klima- Messwerte für den 29.08.2016 in Holzhau im Erzgebirge (630m ü.NN)
ZeitTemperaturLuftdruckRel. LuftfeuchteWindWindrichtungWindchillTaupunktNiederschlag l/m²
23:45:0011.40 °C1019.60 hPa83.00 %8.60 °C 
23:30:0011.90 °C1019.50 hPa83.00 %9.10 °C 
23:15:0012.30 °C1019.20 hPa82.00 %9.30 °C 
23:00:0012.60 °C1018.90 hPa83.00 %9.80 °C 
22:45:0012.50 °C1018.80 hPa83.00 %9.70 °C 
22:30:0012.10 °C1018.60 hPa81.00 %8.90 °C 
22:15:0012.10 °C1018.70 hPa80.00 %8.80 °C 
22:00:0012.40 °C1018.50 hPa80.00 %9.10 °C 
21:45:0012.90 °C1018.50 hPa78.00 %9.20 °C 
21:30:0013.30 °C1018.20 hPa77.00 %9.40 °C 
21:15:0013.80 °C1017.90 hPa76.00 %9.60 °C 
21:00:0014.40 °C1017.70 hPa74.00 %9.80 °C 
20:45:0015.10 °C1017.50 hPa73.00 %10.30 °C 
20:30:0015.80 °C1017.30 hPa71.00 %10.60 °C 
20:15:0016.50 °C1017.30 hPa71.00 %11.20 °C 
20:00:0017.10 °C1017.10 hPa70.00 %11.60 °C 
19:45:0017.50 °C1016.90 hPa69.00 %11.80 °C 
19:30:0017.90 °C1016.70 hPa68.00 %11.90 °C 
19:15:0018.40 °C1016.50 hPa66.00 %11.90 °C 
19:00:0018.90 °C1016.40 hPa65.00 %12.20 °C 
18:45:0019.40 °C1016.30 hPa63.00 %12.20 °C 
18:30:0020.10 °C1016.50 hPa62.00 %12.60 °C 
18:15:0020.30 °C1016.40 hPa61.00 %12.50 °C 
18:00:0020.80 °C1016.20 hPa58.00 %12.20 °C 
17:45:0020.90 °C1016.00 hPa58.00 %12.30 °C 
17:30:0021.20 °C1015.90 hPa58.00 %12.60 °C 
17:15:0021.10 °C1015.80 hPa58.00 %12.50 °C 
17:00:0021.60 °C1015.90 hPa58.00 %13.00 °C 
16:45:0022.10 °C1015.90 hPa56.00 %12.90 °C 
16:30:0023.20 °C1015.80 hPa55.00 %13.70 °C 
16:15:0024.10 °C1015.70 hPa56.00 %14.80 °C 
16:00:0023.80 °C1015.50 hPa56.00 %14.50 °C 
15:45:0023.00 °C1015.70 hPa59.00 %14.60 °C 
15:30:0022.60 °C1015.90 hPa58.00 %13.90 °C 
15:15:0023.20 °C1015.80 hPa58.00 %14.50 °C 
15:00:0023.30 °C1015.60 hPa58.00 %14.60 °C 
14:45:0023.60 °C1015.80 hPa58.00 %14.90 °C 
14:30:0023.40 °C1015.70 hPa59.00 %14.90 °C 
14:15:0023.20 °C1015.90 hPa60.00 %15.00 °C 
14:00:0022.90 °C1015.80 hPa60.00 %14.70 °C 
13:45:0022.90 °C1015.80 hPa60.00 %14.70 °C 
13:30:0022.80 °C1015.90 hPa61.00 %14.90 °C 
13:15:0022.80 °C1015.80 hPa59.00 %14.40 °C 
13:00:0023.20 °C1015.80 hPa59.00 %14.70 °C 
12:45:0023.30 °C1015.80 hPa59.00 %14.80 °C 
12:30:0023.80 °C1015.80 hPa57.00 %14.80 °C 
12:15:0023.40 °C1015.70 hPa61.00 %15.50 °C 
12:00:0022.30 °C1015.70 hPa62.00 %14.70 °C 
11:45:0022.40 °C1015.70 hPa62.00 %14.80 °C 
11:30:0022.80 °C1015.70 hPa65.00 %15.90 °C 
11:15:0022.10 °C1015.60 hPa70.00 %16.40 °C 
11:00:0021.90 °C1015.40 hPa72.00 %16.60 °C 
10:45:0021.90 °C1015.50 hPa73.00 %16.80 °C 
10:30:0020.80 °C1015.50 hPa78.00 %16.80 °C 
10:15:0018.90 °C1015.30 hPa84.00 %16.10 °C 
10:00:0018.70 °C1015.10 hPa85.00 %16.10 °C 
09:45:0018.30 °C1015.20 hPa86.00 %15.90 °C 
09:30:0018.20 °C1015.30 hPa87.00 %16.00 °C 
09:15:0017.80 °C1015.20 hPa88.00 %15.80 °C 
09:00:0017.50 °C1014.80 hPa88.00 %15.50 °C 
08:45:0017.10 °C1014.70 hPa89.00 %15.30 °C 
08:30:0016.60 °C1014.80 hPa88.00 %14.60 °C 
08:15:0016.30 °C1014.80 hPa88.00 %14.30 °C 
08:00:0016.10 °C1014.50 hPa88.00 %14.10 °C 
07:45:0015.80 °C1014.30 hPa89.00 %14.00 °C 
07:30:0015.40 °C1014.40 hPa89.00 %13.60 °C 
07:15:0014.90 °C1014.10 hPa89.00 %13.10 °C 
07:00:0014.40 °C1014.20 hPa89.00 %12.60 °C 
06:45:0014.00 °C1014.20 hPa88.00 %12.00 °C 
06:30:0013.90 °C1014.10 hPa87.00 %11.80 °C 
06:15:0013.90 °C1013.90 hPa87.00 %11.80 °C 
06:00:0014.10 °C1013.80 hPa87.00 %12.00 °C 
05:45:0014.20 °C1013.80 hPa87.00 %12.10 °C 
05:30:0014.10 °C1013.80 hPa87.00 %12.00 °C 
05:15:0014.20 °C1013.80 hPa86.00 %11.90 °C 
05:00:0014.30 °C1013.90 hPa86.00 %12.00 °C 
04:45:0014.60 °C1013.70 hPa86.00 %12.30 °C 
04:30:0014.90 °C1013.90 hPa85.00 %12.40 °C 
04:15:0014.90 °C1013.90 hPa85.00 %12.40 °C 
04:00:0014.90 °C1013.90 hPa85.00 %12.40 °C 
03:45:0015.00 °C1013.80 hPa85.00 %12.50 °C 
03:30:0014.90 °C1013.80 hPa85.00 %12.40 °C 
03:15:0014.90 °C1013.90 hPa85.00 %12.40 °C 
03:00:0014.80 °C1014.00 hPa85.00 %12.30 °C 
02:45:0014.40 °C1013.60 hPa85.00 %11.90 °C 
02:30:0014.30 °C1013.90 hPa84.00 %11.60 °C 
02:15:0014.40 °C1013.70 hPa83.00 %11.60 °C 
02:00:0014.60 °C1013.70 hPa83.00 %11.70 °C 
01:45:0014.70 °C1013.70 hPa82.00 %11.70 °C 
01:30:0014.80 °C1013.50 hPa81.00 %11.60 °C 
01:15:0014.90 °C1013.60 hPa80.00 %11.50 °C 
01:00:0015.40 °C1013.40 hPa79.00 %11.80 °C 
00:45:0015.90 °C1013.50 hPa78.00 %12.10 °C 
00:30:0016.40 °C1013.50 hPa77.00 %12.40 °C 
00:15:0017.00 °C1013.70 hPa75.00 %12.50 °C 
00:00:0017.60 °C1013.80 hPa73.00 %12.70 °C 

Permanenter Link zu dieser Seite: Wetter im Erzgebirge am 29.08.2016
Performance-Info: Die Erstellung der Seite / Statistik(en) / Tabelle(n) erforderte 5 Datenbankserver-Abfrage(n) und dauerte 70 Millisekunden. (Dieser Messwert ist von der Gesamt-Auslastung des Servers abhängig.)
Erzgebirge - Wetter | Erzgebirge - Wetter (Mobilgeräte) | Komplette Klimadatenbank